createdAt,value
2022-08-09T00:00:04.442Z,3.10
2022-08-09T00:06:19.037Z,3.03
2022-08-09T00:08:10.817Z,2.78
2022-08-09T00:10:39.249Z,3.22
2022-08-09T00:13:16.868Z,3.42
2022-08-09T00:15:59.092Z,3.85
2022-08-09T00:18:30.119Z,3.80
2022-08-09T00:20:58.053Z,3.83
2022-08-09T00:23:58.233Z,3.97
2022-08-09T00:26:12.115Z,3.50
2022-08-09T00:28:40.558Z,4.20
2022-08-09T00:31:09.096Z,4.18
2022-08-09T00:33:55.001Z,3.63
2022-08-09T00:36:27.136Z,4.13
2022-08-09T00:38:57.106Z,4.35
2022-08-09T00:44:15.218Z,4.35
2022-08-09T00:44:24.902Z,4.05
2022-08-09T00:47:01.718Z,4.05
2022-08-09T00:49:36.906Z,4.45
2022-08-09T00:52:15.940Z,4.32
2022-08-09T00:54:45.194Z,4.30
2022-08-09T00:57:12.002Z,4.40
2022-08-09T00:59:46.921Z,4.65
2022-08-09T01:02:20.865Z,4.80
2022-08-09T01:05:02.690Z,4.53
2022-08-09T01:08:02.179Z,4.38
2022-08-09T01:10:46.683Z,4.70
2022-08-09T01:13:41.809Z,4.60
2022-08-09T01:16:11.488Z,4.85
2022-08-09T01:18:47.703Z,5.13
2022-08-09T01:21:51.314Z,4.53
2022-08-09T01:24:29.603Z,4.90
2022-08-09T01:27:07.799Z,4.68
2022-08-09T01:29:54.964Z,4.53
2022-08-09T01:32:33.850Z,4.22
2022-08-09T01:35:07.176Z,4.53
2022-08-09T01:40:42.338Z,4.38
2022-08-09T01:43:10.492Z,4.40
2022-08-09T01:45:44.633Z,4.50
2022-08-09T01:48:15.662Z,4.47
2022-08-09T01:50:48.328Z,4.57
2022-08-09T01:53:20.081Z,5.05
2022-08-09T01:55:49.797Z,5.43
2022-08-09T01:58:17.739Z,5.30
2022-08-09T02:00:46.237Z,5.35
2022-08-09T02:03:18.271Z,5.55
2022-08-09T02:06:06.279Z,5.70
2022-08-09T02:08:57.376Z,5.45
2022-08-09T02:11:42.548Z,5.25
2022-08-09T02:14:14.965Z,5.47
2022-08-09T02:17:14.840Z,5.35
2022-08-09T02:19:43.694Z,5.72
2022-08-09T02:22:19.158Z,5.45
2022-08-09T02:24:58.477Z,5.97
2022-08-09T02:27:43.547Z,5.82
2022-08-09T02:30:16.083Z,5.40
2022-08-09T02:32:47.418Z,5.75
2022-08-09T02:36:01.986Z,4.88
2022-08-09T02:38:12.184Z,5.75
2022-08-09T02:40:58.276Z,5.93
2022-08-09T02:43:28.821Z,5.75
2022-08-09T02:45:58.094Z,5.72
2022-08-09T02:48:31.135Z,6.18
2022-08-09T02:51:01.783Z,5.90
2022-08-09T02:53:36.980Z,5.93
2022-08-09T02:56:06.006Z,5.72
2022-08-09T02:58:36.601Z,5.78
2022-08-09T03:01:07.700Z,5.05
2022-08-09T03:04:12.894Z,5.63
2022-08-09T03:06:27.451Z,5.63
2022-08-09T03:08:55.455Z,5.80
2022-08-09T03:12:04.465Z,5.40
2022-08-09T03:14:13.445Z,5.70
2022-08-09T03:16:47.570Z,5.15
2022-08-09T03:19:57.811Z,5.88
2022-08-09T03:22:05.267Z,5.72
2022-08-09T03:24:42.862Z,5.72
2022-08-09T03:27:21.472Z,5.75
2022-08-09T03:29:56.981Z,5.60
2022-08-09T03:32:26.159Z,6.00
2022-08-09T03:34:54.075Z,5.35
2022-08-09T03:37:56.413Z,6.10
2022-08-09T03:40:13.296Z,5.47
2022-08-09T03:42:43.137Z,5.97
2022-08-09T03:45:10.751Z,5.78
2022-08-09T03:47:41.895Z,5.55
2022-08-09T03:50:12.126Z,6.10
2022-08-09T03:52:42.659Z,5.50
2022-08-09T03:55:14.391Z,5.65
2022-08-09T03:57:44.639Z,5.72
2022-08-09T04:00:29.487Z,5.40
2022-08-09T04:02:58.848Z,6.30
2022-08-09T04:05:27.775Z,5.53
2022-08-09T04:07:57.265Z,5.38
2022-08-09T04:10:28.732Z,5.40
2022-08-09T04:13:01.371Z,6.22
2022-08-09T04:15:52.103Z,5.63
2022-08-09T04:18:21.144Z,6.13
2022-08-09T04:20:48.283Z,5.78
2022-08-09T04:23:16.754Z,5.95
2022-08-09T04:25:51.825Z,5.90
2022-08-09T04:28:33.260Z,6.03
2022-08-09T04:31:07.636Z,6.30
2022-08-09T04:33:53.049Z,5.80
2022-08-09T04:36:24.761Z,5.93
2022-08-09T04:38:51.743Z,6.55
2022-08-09T04:41:18.776Z,6.05
2022-08-09T04:43:53.611Z,5.93
2022-08-09T04:46:37.670Z,6.40
2022-08-09T04:49:22.344Z,6.90
2022-08-09T04:52:07.296Z,6.38
2022-08-09T04:54:34.100Z,6.03
2022-08-09T04:57:00.588Z,6.38
2022-08-09T04:59:30.770Z,6.30
2022-08-09T05:01:57.259Z,6.72
2022-08-09T05:04:23.879Z,6.22
2022-08-09T05:06:57.864Z,5.97
2022-08-09T05:09:24.656Z,6.75
2022-08-09T05:11:51.468Z,7.32
2022-08-09T05:14:18.449Z,6.38
2022-08-09T05:16:59.329Z,6.30
2022-08-09T05:19:44.550Z,6.00
2022-08-09T05:22:33.446Z,5.93
2022-08-09T05:25:01.043Z,5.30
2022-08-09T05:27:29.115Z,5.72
2022-08-09T05:29:57.927Z,5.10
2022-08-09T05:32:26.455Z,5.32
2022-08-09T05:34:56.684Z,5.70
2022-08-09T05:37:23.738Z,5.70
2022-08-09T05:39:52.245Z,5.35
2022-08-09T05:42:21.816Z,5.18
2022-08-09T05:44:53.082Z,5.60
2022-08-09T05:47:24.044Z,5.55
2022-08-09T05:52:39.670Z,5.22
2022-08-09T05:55:08.675Z,5.22
2022-08-09T05:57:51.404Z,5.45
2022-08-09T06:00:23.126Z,5.20
2022-08-09T06:02:54.318Z,5.07
2022-08-09T06:05:30.981Z,5.53
2022-08-09T06:08:08.947Z,5.07
2022-08-09T06:10:38.451Z,5.25
2022-08-09T06:13:12.034Z,5.30
2022-08-09T06:15:39.848Z,5.18
2022-08-09T06:18:06.709Z,4.78
2022-08-09T06:23:04.358Z,5.15
2022-08-09T06:25:31.275Z,4.57
2022-08-09T06:28:00.972Z,5.10
2022-08-09T06:30:27.852Z,4.82
2022-08-09T06:33:00.277Z,4.88
2022-08-09T06:35:57.347Z,4.95
2022-08-09T06:38:31.861Z,4.63
2022-08-09T06:41:04.062Z,5.82
2022-08-09T06:43:34.365Z,4.90
2022-08-09T06:46:06.905Z,4.50
2022-08-09T06:48:37.170Z,5.13
2022-08-09T06:51:10.095Z,4.15
2022-08-09T06:53:38.344Z,4.40
2022-08-09T06:56:06.995Z,4.60
2022-08-09T07:00:49.027Z,4.57
2022-08-09T07:01:21.509Z,4.20
2022-08-09T07:03:52.538Z,4.70
2022-08-09T07:06:21.464Z,3.67
2022-08-09T07:08:52.025Z,3.95
2022-08-09T07:11:25.249Z,4.20
2022-08-09T07:14:03.978Z,4.07
2022-08-09T07:16:43.153Z,4.05
2022-08-09T07:19:18.414Z,3.92
2022-08-09T07:21:55.910Z,4.05
2022-08-09T07:24:32.083Z,4.32
2022-08-09T07:27:15.482Z,3.75
2022-08-09T07:29:58.381Z,3.45
2022-08-09T07:32:33.390Z,3.63
2022-08-09T07:35:10.456Z,3.78
2022-08-09T07:37:44.403Z,3.42
2022-08-09T07:40:20.384Z,3.30
2022-08-09T07:42:58.487Z,2.72
2022-08-09T07:45:37.990Z,2.38
2022-08-09T07:48:06.722Z,2.97
2022-08-09T07:50:36.763Z,2.70
2022-08-09T07:53:05.260Z,3.15
2022-08-09T07:55:41.455Z,3.30
2022-08-09T07:58:19.396Z,2.70
2022-08-09T08:00:58.884Z,2.70
2022-08-09T08:03:33.158Z,2.55
2022-08-09T08:06:04.583Z,2.17
2022-08-09T08:09:02.414Z,2.45
2022-08-09T08:12:25.062Z,2.28
2022-08-09T08:14:06.363Z,2.00
2022-08-09T08:16:34.546Z,2.20
2022-08-09T08:19:03.266Z,1.80
2022-08-09T08:21:31.727Z,1.85
2022-08-09T08:24:00.908Z,1.63
2022-08-09T08:26:55.099Z,1.80
2022-08-09T08:29:15.011Z,1.33
2022-08-09T08:32:03.667Z,1.48
2022-08-09T08:34:33.452Z,1.70
2022-08-09T08:37:01.392Z,1.42
2022-08-09T08:39:28.180Z,1.20
2022-08-09T08:41:55.183Z,1.30
2022-08-09T08:44:29.302Z,1.10
2022-08-09T08:47:02.920Z,1.10
2022-08-09T08:49:46.371Z,1.30
2022-08-09T08:52:41.479Z,1.30
2022-08-09T08:55:03.799Z,1.20
2022-08-09T08:57:34.984Z,1.30
2022-08-09T09:00:03.507Z,1.00
2022-08-09T09:02:41.035Z,1.08
2022-08-09T09:05:12.447Z,0.90
2022-08-09T09:07:42.504Z,1.00
2022-08-09T09:10:10.913Z,0.90
2022-08-09T09:12:38.013Z,1.08
2022-08-09T09:15:06.235Z,0.80
2022-08-09T09:17:49.212Z,0.90
2022-08-09T09:20:21.235Z,1.13
2022-08-09T09:23:01.627Z,0.90
2022-08-09T09:26:04.158Z,1.10
2022-08-09T09:29:02.052Z,0.98
2022-08-09T09:32:06.072Z,1.00
2022-08-09T09:34:14.497Z,1.00
2022-08-09T09:36:46.815Z,1.40
2022-08-09T09:39:22.611Z,1.02
2022-08-09T09:41:50.992Z,0.90
2022-08-09T09:44:35.286Z,0.70
2022-08-09T09:47:16.499Z,0.90
2022-08-09T09:50:13.768Z,0.90
2022-08-09T09:52:57.318Z,18.48
2022-08-09T09:55:32.586Z,1.17
2022-08-09T09:58:17.405Z,1.02
2022-08-09T10:01:04.044Z,1.00
2022-08-09T10:03:57.448Z,1.08
2022-08-09T10:06:42.533Z,1.40
2022-08-09T10:09:22.504Z,1.10
2022-08-09T10:12:14.523Z,1.00
2022-08-09T10:14:49.441Z,1.10
2022-08-09T10:17:40.124Z,0.93
2022-08-09T10:23:22.749Z,1.00
2022-08-09T10:26:07.678Z,1.17
2022-08-09T10:28:38.719Z,0.98
2022-08-09T10:34:08.676Z,0.90
2022-08-09T10:36:43.016Z,1.10
2022-08-09T10:39:15.712Z,0.80
2022-08-09T10:41:44.684Z,0.90
2022-08-09T10:44:11.321Z,1.00
2022-08-09T10:47:04.135Z,0.90
2022-08-09T10:50:01.352Z,1.10
2022-08-09T10:53:00.328Z,0.73
2022-08-09T10:55:49.269Z,0.90
2022-08-09T10:58:37.870Z,0.85
2022-08-09T11:03:06.547Z,0.90
2022-08-09T11:04:10.415Z,0.95
2022-08-09T11:07:00.762Z,1.00
2022-08-09T11:12:17.655Z,0.80
2022-08-09T11:14:54.783Z,0.80
2022-08-09T11:17:22.541Z,0.90
2022-08-09T11:20:10.754Z,0.88
2022-08-09T11:22:43.223Z,0.80
2022-08-09T11:25:14.758Z,1.00
2022-08-09T11:28:04.977Z,0.73
2022-08-09T11:30:35.771Z,0.85
2022-08-09T11:33:05.889Z,0.90
2022-08-09T11:36:01.097Z,0.73
2022-08-09T11:38:34.198Z,0.80
2022-08-09T11:41:13.065Z,1.27
2022-08-09T11:43:48.649Z,0.80
2022-08-09T11:46:18.420Z,0.80
2022-08-09T11:48:55.439Z,0.90
2022-08-09T11:53:01.070Z,0.73
2022-08-09T11:54:21.634Z,0.98
2022-08-09T11:57:59.645Z,0.98
2022-08-09T12:00:27.656Z,0.90
2022-08-09T12:02:55.854Z,0.80
2022-08-09T12:05:33.253Z,1.13
2022-08-09T12:08:08.219Z,0.80
2022-08-09T12:10:48.502Z,0.90
2022-08-09T12:14:10.682Z,1.02
2022-08-09T12:16:38.134Z,0.80
2022-08-09T12:19:08.611Z,0.80
2022-08-09T12:21:50.835Z,0.88
2022-08-09T12:24:25.008Z,0.80
2022-08-09T12:29:13.972Z,0.98
2022-08-09T12:30:04.319Z,0.88
2022-08-09T12:32:41.033Z,1.00
2022-08-09T12:35:10.774Z,1.00
2022-08-09T12:37:50.644Z,0.90
2022-08-09T12:40:19.132Z,1.05
2022-08-09T12:42:46.413Z,1.08
2022-08-09T12:45:33.642Z,0.85
2022-08-09T12:48:05.029Z,0.90
2022-08-09T12:50:34.224Z,1.02
2022-08-09T12:53:18.353Z,1.00
2022-08-09T12:56:13.099Z,1.10
2022-08-09T12:58:33.924Z,0.90
2022-08-09T13:01:04.409Z,0.80
2022-08-09T13:03:57.384Z,0.90
2022-08-09T13:06:34.894Z,0.90
2022-08-09T13:09:06.642Z,1.02
2022-08-09T13:11:39.496Z,0.90
2022-08-09T13:14:42.803Z,0.90
2022-08-09T13:17:14.097Z,0.88
2022-08-09T13:20:09.336Z,0.93
2022-08-09T13:23:00.064Z,0.80
2022-08-09T13:25:20.368Z,0.80
2022-08-09T13:27:54.361Z,0.80
2022-08-09T13:30:51.315Z,0.98
2022-08-09T13:33:11.583Z,0.80
2022-08-09T13:36:24.805Z,0.80
2022-08-09T13:38:54.161Z,0.80
2022-08-09T13:41:57.837Z,0.75
2022-08-09T13:44:13.785Z,0.80
2022-08-09T13:47:27.490Z,1.00
2022-08-09T13:49:39.717Z,0.98
2022-08-09T13:52:22.072Z,0.80
2022-08-09T13:55:00.435Z,0.93
2022-08-09T13:57:36.399Z,0.80
2022-08-09T14:00:12.628Z,0.73
2022-08-09T14:02:42.094Z,0.95
2022-08-09T14:05:11.038Z,0.73
2022-08-09T14:07:42.162Z,1.00
2022-08-09T14:10:17.323Z,0.82
2022-08-09T14:12:55.579Z,0.80
2022-08-09T14:16:09.658Z,0.90
2022-08-09T14:18:27.547Z,0.88
2022-08-09T14:20:56.958Z,1.00
2022-08-09T14:23:40.650Z,1.05
2022-08-09T14:26:10.067Z,1.15
2022-08-09T14:28:37.556Z,1.08
2022-08-09T14:31:04.175Z,0.90
2022-08-09T14:33:30.664Z,1.02
2022-08-09T14:36:20.683Z,1.00
2022-08-09T14:38:52.647Z,1.00
2022-08-09T14:41:34.888Z,1.00
2022-08-09T14:44:06.709Z,1.00
2022-08-09T14:46:55.587Z,0.73
2022-08-09T14:49:23.493Z,0.85
2022-08-09T14:51:50.608Z,1.00
2022-08-09T14:54:22.160Z,1.10
2022-08-09T14:56:57.337Z,0.88
2022-08-09T14:59:28.498Z,0.80
2022-08-09T15:01:55.855Z,0.70
2022-08-09T15:04:23.643Z,0.85
2022-08-09T15:06:51.326Z,1.65
2022-08-09T15:09:30.703Z,1.00
2022-08-09T15:12:08.151Z,0.70
2022-08-09T15:14:38.325Z,4.72
2022-08-09T15:17:09.480Z,8.18
2022-08-09T15:19:36.913Z,4.67
2022-08-09T15:22:22.009Z,1.95
2022-08-09T15:24:52.561Z,1.00
2022-08-09T15:27:19.208Z,0.90
2022-08-09T15:30:57.172Z,1.00
2022-08-09T15:32:32.223Z,1.10
2022-08-09T15:34:59.808Z,0.90
2022-08-09T15:38:10.747Z,1.00
2022-08-09T15:40:32.430Z,0.80
2022-08-09T15:43:00.224Z,0.80
2022-08-09T15:45:29.519Z,0.80
2022-08-09T15:48:05.050Z,0.90
2022-08-09T15:50:39.150Z,0.90
2022-08-09T15:53:17.919Z,0.97
2022-08-09T15:55:58.935Z,0.95
2022-08-09T15:58:30.877Z,0.80
2022-08-09T16:00:59.426Z,0.90
2022-08-09T16:03:29.375Z,0.85
2022-08-09T16:06:06.280Z,0.82
2022-08-09T16:08:33.497Z,0.80
2022-08-09T16:11:01.959Z,0.80
2022-08-09T16:14:04.136Z,0.80
2022-08-09T16:16:20.372Z,0.90
2022-08-09T16:18:54.563Z,0.90
2022-08-09T16:21:25.648Z,0.80
2022-08-09T16:23:58.741Z,0.98
2022-08-09T16:26:34.456Z,0.95
2022-08-09T16:29:13.984Z,0.90
2022-08-09T16:32:18.137Z,1.00
2022-08-09T16:34:54.672Z,1.27
2022-08-09T16:37:20.434Z,0.80
2022-08-09T16:40:08.711Z,0.90
2022-08-09T16:42:36.246Z,0.85
2022-08-09T16:45:05.067Z,1.00
2022-08-09T16:48:39.465Z,0.90
2022-08-09T16:50:28.686Z,0.90
2022-08-09T16:52:59.842Z,0.90
2022-08-09T16:55:26.362Z,0.80
2022-08-09T16:58:09.093Z,0.63
2022-08-09T17:00:38.805Z,0.88
2022-08-09T17:03:22.278Z,0.75
2022-08-09T17:06:08.639Z,1.10
2022-08-09T17:08:58.148Z,1.00
2022-08-09T17:11:40.834Z,0.95
2022-08-09T17:14:26.139Z,0.90
2022-08-09T17:17:01.129Z,1.00
2022-08-09T17:20:05.958Z,0.90
2022-08-09T17:22:35.699Z,0.90
2022-08-09T17:25:10.173Z,0.93
2022-08-09T17:27:49.397Z,0.80
2022-08-09T17:30:26.436Z,0.88
2022-08-09T17:33:04.820Z,0.95
2022-08-09T17:35:34.919Z,0.80
2022-08-09T17:38:24.338Z,0.80
2022-08-09T17:40:51.506Z,1.05
2022-08-09T17:43:34.075Z,1.05
2022-08-09T17:46:08.858Z,0.98
2022-08-09T17:48:46.513Z,0.85
2022-08-09T17:51:19.850Z,1.10
2022-08-09T17:53:51.756Z,0.70
2022-08-09T17:56:35.574Z,0.95
2022-08-09T17:59:09.516Z,1.00
2022-08-09T18:02:03.753Z,0.85
2022-08-09T18:04:25.655Z,0.60
2022-08-09T18:06:54.453Z,0.80
2022-08-09T18:09:23.156Z,0.98
2022-08-09T18:12:14.625Z,0.80
2022-08-09T18:14:37.937Z,1.00
2022-08-09T18:17:18.548Z,0.98
2022-08-09T18:20:57.017Z,0.90
2022-08-09T18:22:34.670Z,0.90
2022-08-09T18:25:01.341Z,0.82
2022-08-09T18:28:02.898Z,0.80
2022-08-09T18:30:38.508Z,1.00
2022-08-09T18:33:04.067Z,0.73
2022-08-09T18:35:58.466Z,0.90
2022-08-09T18:38:25.845Z,0.90
2022-08-09T18:40:55.213Z,1.23
2022-08-09T18:43:23.567Z,1.00
2022-08-09T18:46:47.970Z,1.13
2022-08-09T18:48:36.903Z,0.82
2022-08-09T18:51:03.452Z,0.90
2022-08-09T18:53:55.981Z,0.93
2022-08-09T18:56:27.106Z,1.00
2022-08-09T18:58:55.564Z,1.20
2022-08-09T19:01:22.616Z,1.23
2022-08-09T19:04:05.939Z,1.27
2022-08-09T19:06:38.635Z,1.10
2022-08-09T19:09:07.060Z,0.88
2022-08-09T19:11:37.791Z,1.20
2022-08-09T19:16:36.640Z,0.93
2022-08-09T19:19:21.557Z,0.90
2022-08-09T19:22:06.508Z,1.20
2022-08-09T19:27:20.489Z,1.00
2022-08-09T19:30:22.327Z,1.00
2022-08-09T19:32:37.899Z,1.25
2022-08-09T19:35:05.519Z,0.90
2022-08-09T19:37:52.816Z,1.10
2022-08-09T19:40:19.988Z,1.20
2022-08-09T19:42:47.429Z,1.10
2022-08-09T19:45:16.305Z,1.10
2022-08-09T19:47:44.323Z,0.90
2022-08-09T19:50:49.250Z,0.90
2022-08-09T19:52:59.153Z,1.60
2022-08-09T19:55:53.091Z,1.00
2022-08-09T19:58:17.022Z,1.20
2022-08-09T20:00:45.465Z,1.30
2022-08-09T20:04:07.106Z,1.35
2022-08-09T20:06:22.544Z,1.20
2022-08-09T20:08:56.694Z,1.05
2022-08-09T20:11:26.184Z,1.13
2022-08-09T20:13:55.341Z,1.27
2022-08-09T20:16:38.057Z,1.50
2022-08-09T20:19:48.095Z,1.58
2022-08-09T20:22:00.135Z,1.70
2022-08-09T20:24:29.808Z,1.40
2022-08-09T20:27:08.018Z,1.50
2022-08-09T20:29:37.202Z,1.38
2022-08-09T20:32:29.830Z,1.40
2022-08-09T20:34:56.070Z,1.70
2022-08-09T20:37:23.150Z,1.50
2022-08-09T20:40:15.743Z,1.50
2022-08-09T20:42:38.077Z,1.42
2022-08-09T20:45:58.596Z,1.52
2022-08-09T20:47:52.874Z,1.77
2022-08-09T20:50:47.475Z,1.80
2022-08-09T20:53:21.105Z,1.10
2022-08-09T20:56:00.965Z,1.50
2022-08-09T20:58:32.797Z,1.35
2022-08-09T21:01:33.698Z,1.40
2022-08-09T21:05:48.461Z,1.30
2022-08-09T21:06:35.931Z,1.30
2022-08-09T21:09:03.271Z,1.20
2022-08-09T21:14:17.569Z,1.38
2022-08-09T21:16:45.835Z,1.42
2022-08-09T21:20:18.783Z,1.30
2022-08-09T21:22:00.063Z,1.52
2022-08-09T21:24:32.521Z,1.08
2022-08-09T21:27:01.038Z,1.20
2022-08-09T21:29:49.245Z,1.05
2022-08-09T21:32:18.821Z,1.02
2022-08-09T21:34:49.165Z,1.30
2022-08-09T21:37:18.285Z,1.27
2022-08-09T21:39:45.112Z,1.17
2022-08-09T21:42:17.494Z,1.42
2022-08-09T21:44:55.091Z,1.10
2022-08-09T21:47:21.655Z,1.10
2022-08-09T21:49:49.514Z,1.45
2022-08-09T21:52:20.928Z,1.20
2022-08-09T21:54:56.923Z,1.00
2022-08-09T21:57:39.416Z,1.20
2022-08-09T22:00:26.844Z,1.00
2022-08-09T22:03:00.803Z,1.05
2022-08-09T22:05:36.896Z,1.13
2022-08-09T22:08:13.903Z,1.00
2022-08-09T22:11:49.205Z,1.23
2022-08-09T22:13:31.373Z,1.08
2022-08-09T22:16:00.847Z,1.20
2022-08-09T22:18:32.784Z,1.38
2022-08-09T22:21:00.255Z,1.25
2022-08-09T22:23:27.006Z,1.00
2022-08-09T22:26:06.651Z,1.15
2022-08-09T22:28:36.151Z,1.10
2022-08-09T22:31:13.741Z,1.20
2022-08-09T22:33:48.710Z,1.10
2022-08-09T22:36:21.595Z,2.75
2022-08-09T22:38:48.856Z,1.10
2022-08-09T22:41:15.381Z,1.23
2022-08-09T22:44:01.597Z,1.20
2022-08-09T22:48:16.015Z,1.13
2022-08-09T22:49:15.899Z,1.38
2022-08-09T22:51:43.542Z,1.20
2022-08-09T22:54:16.340Z,1.25
2022-08-09T22:59:55.619Z,1.10
2022-08-09T23:02:07.930Z,1.23
2022-08-09T23:04:34.706Z,1.23
2022-08-09T23:08:21.408Z,1.35
2022-08-09T23:10:10.312Z,1.10
2022-08-09T23:12:36.938Z,1.20
2022-08-09T23:15:04.513Z,1.10
2022-08-09T23:17:31.147Z,1.20
2022-08-09T23:20:00.643Z,1.50
2022-08-09T23:22:35.737Z,1.38
2022-08-09T23:25:04.712Z,1.35
2022-08-09T23:27:31.626Z,1.13
2022-08-09T23:29:58.240Z,1.27
2022-08-09T23:32:24.953Z,1.38
2022-08-09T23:34:51.495Z,1.70
2022-08-09T23:37:22.772Z,1.35
2022-08-09T23:39:52.224Z,1.40
2022-08-09T23:42:18.738Z,1.35
2022-08-09T23:44:45.207Z,1.40
2022-08-09T23:47:11.817Z,1.35
2022-08-09T23:49:38.337Z,1.42
2022-08-09T23:52:05.088Z,1.33
2022-08-09T23:54:31.657Z,1.20
2022-08-09T23:56:58.653Z,1.30
2022-08-09T23:59:25.587Z,1.50
